createdAt,value
2017-12-09T00:00:43.364Z,2.30
2017-12-09T00:03:11.306Z,2.30
2017-12-09T00:05:38.402Z,2.30
2017-12-09T00:08:05.506Z,2.30
2017-12-09T00:10:32.664Z,2.40
2017-12-09T00:12:59.800Z,2.30
2017-12-09T00:15:27.084Z,2.40
2017-12-09T00:17:55.136Z,2.30
2017-12-09T00:20:22.188Z,2.30
2017-12-09T00:22:49.372Z,2.20
2017-12-09T00:25:16.524Z,2.20
2017-12-09T00:27:48.283Z,2.30
2017-12-09T00:30:15.508Z,2.40
2017-12-09T00:32:42.560Z,2.20
2017-12-09T00:35:09.747Z,2.20
2017-12-09T00:37:36.961Z,2.30
2017-12-09T00:40:04.069Z,2.30
2017-12-09T00:42:31.192Z,2.20
2017-12-09T00:44:58.316Z,2.20
2017-12-09T00:47:26.220Z,2.30
2017-12-09T00:49:53.467Z,2.30
2017-12-09T00:52:20.648Z,2.50
2017-12-09T00:54:47.930Z,2.40
2017-12-09T00:57:15.060Z,2.40
2017-12-09T00:59:42.340Z,2.30
2017-12-09T01:02:09.423Z,2.30
2017-12-09T01:04:36.439Z,2.30
2017-12-09T01:07:03.651Z,2.20
2017-12-09T01:09:30.767Z,2.40
2017-12-09T01:11:57.938Z,2.50
2017-12-09T01:14:25.079Z,2.30
2017-12-09T01:17:04.385Z,2.20
2017-12-09T01:19:31.390Z,2.30
2017-12-09T01:21:58.372Z,2.40
2017-12-09T01:24:25.657Z,2.40
2017-12-09T01:26:52.865Z,2.30
2017-12-09T01:29:20.035Z,2.40
2017-12-09T01:31:47.109Z,2.40
2017-12-09T01:34:14.300Z,2.40
2017-12-09T01:36:42.322Z,2.50
2017-12-09T01:39:09.454Z,2.60
2017-12-09T01:41:36.608Z,2.60
2017-12-09T01:44:03.838Z,2.50
2017-12-09T01:46:30.934Z,2.60
2017-12-09T01:48:58.152Z,2.50
2017-12-09T01:51:25.315Z,2.50
2017-12-09T01:53:52.627Z,2.30
2017-12-09T01:56:19.647Z,2.50
2017-12-09T01:58:46.897Z,2.40
2017-12-09T02:01:14.163Z,2.50
2017-12-09T02:03:41.394Z,2.40
2017-12-09T02:06:08.700Z,2.40
2017-12-09T02:08:35.790Z,2.40
2017-12-09T02:11:03.091Z,2.40
2017-12-09T02:13:30.516Z,2.40
2017-12-09T02:15:58.491Z,2.40
2017-12-09T02:18:25.607Z,2.30
2017-12-09T02:20:52.803Z,2.30
2017-12-09T02:23:19.885Z,2.30
2017-12-09T02:25:47.027Z,2.30
2017-12-09T02:28:14.311Z,2.20
2017-12-09T02:30:42.389Z,2.10
2017-12-09T02:33:09.607Z,2.00
2017-12-09T02:35:37.025Z,2.00
2017-12-09T02:38:04.247Z,2.10
2017-12-09T02:40:31.328Z,1.90
2017-12-09T02:42:58.641Z,1.90
2017-12-09T02:45:25.824Z,2.00
2017-12-09T02:47:53.764Z,2.00
2017-12-09T02:50:20.872Z,2.00
2017-12-09T02:52:47.987Z,2.00
2017-12-09T02:55:15.176Z,2.20
2017-12-09T02:57:42.248Z,2.10
2017-12-09T03:00:09.513Z,2.00
2017-12-09T03:02:36.696Z,2.20
2017-12-09T03:05:04.006Z,2.20
2017-12-09T03:07:31.067Z,2.20
2017-12-09T03:09:58.267Z,2.20
2017-12-09T03:12:25.456Z,2.20
2017-12-09T03:14:52.736Z,2.10
2017-12-09T03:17:20.172Z,2.20
2017-12-09T03:19:47.411Z,2.00
2017-12-09T03:22:14.687Z,1.90
2017-12-09T03:24:41.851Z,1.80
2017-12-09T03:27:08.947Z,2.00
2017-12-09T03:29:36.110Z,2.00
2017-12-09T03:32:03.364Z,2.00
2017-12-09T03:34:30.419Z,1.80
2017-12-09T03:36:57.440Z,2.10
2017-12-09T03:39:25.395Z,2.20
2017-12-09T03:41:52.417Z,2.20
2017-12-09T03:44:19.527Z,2.30
2017-12-09T03:46:46.718Z,2.40
2017-12-09T03:49:14.669Z,2.30
2017-12-09T03:51:41.818Z,2.20
2017-12-09T03:54:09.018Z,2.20
2017-12-09T03:56:36.180Z,2.20
2017-12-09T03:59:03.309Z,2.20
2017-12-09T04:01:30.403Z,2.00
2017-12-09T04:03:57.348Z,2.00
2017-12-09T04:06:24.604Z,1.90
2017-12-09T04:08:51.652Z,2.00
2017-12-09T04:11:18.768Z,2.00
2017-12-09T04:13:45.954Z,2.10
2017-12-09T04:16:13.173Z,2.00
2017-12-09T04:18:40.431Z,2.10
2017-12-09T04:21:08.433Z,2.00
2017-12-09T04:23:35.615Z,2.00
2017-12-09T04:26:02.821Z,1.90
2017-12-09T04:28:30.126Z,1.90
2017-12-09T04:30:57.190Z,1.80
2017-12-09T04:33:24.350Z,1.80
2017-12-09T04:35:51.485Z,1.60
2017-12-09T04:38:18.594Z,1.60
2017-12-09T04:40:45.768Z,1.50
2017-12-09T04:43:12.919Z,1.60
2017-12-09T04:45:40.021Z,1.50
2017-12-09T04:48:07.219Z,1.50
2017-12-09T04:50:34.383Z,1.50
2017-12-09T04:53:01.704Z,1.50
2017-12-09T04:55:28.829Z,1.40
2017-12-09T04:57:56.652Z,1.60
2017-12-09T05:00:23.823Z,1.60
2017-12-09T05:02:51.028Z,1.50
2017-12-09T05:05:18.166Z,1.50
2017-12-09T05:07:45.317Z,1.40
2017-12-09T05:10:12.666Z,1.40
2017-12-09T05:12:39.874Z,1.30
2017-12-09T05:15:07.010Z,1.20
2017-12-09T05:17:34.169Z,1.20
2017-12-09T05:20:01.306Z,1.10
2017-12-09T05:22:28.366Z,1.20
2017-12-09T05:24:55.741Z,1.00
2017-12-09T05:27:23.748Z,1.20
2017-12-09T05:29:51.691Z,1.00
2017-12-09T05:32:18.879Z,1.00
2017-12-09T05:34:46.051Z,1.00
2017-12-09T05:37:13.351Z,0.90
2017-12-09T05:39:40.614Z,0.90
2017-12-09T05:42:07.731Z,1.00
2017-12-09T05:44:34.821Z,0.90
2017-12-09T05:47:02.712Z,1.00
2017-12-09T05:49:29.753Z,1.00
2017-12-09T05:51:56.954Z,0.90
2017-12-09T05:54:24.191Z,0.90
2017-12-09T05:56:51.342Z,0.90
2017-12-09T05:59:18.452Z,0.90
2017-12-09T06:01:46.292Z,0.90
2017-12-09T06:04:13.546Z,0.90
2017-12-09T06:06:40.728Z,0.90
2017-12-09T06:09:08.565Z,0.80
2017-12-09T06:11:35.613Z,0.80
2017-12-09T06:14:02.790Z,0.80
2017-12-09T06:16:30.662Z,0.70
2017-12-09T06:18:58.508Z,0.60
2017-12-09T06:21:25.719Z,0.50
2017-12-09T06:23:52.780Z,0.70
2017-12-09T06:26:19.899Z,0.70
2017-12-09T06:28:47.116Z,0.80
2017-12-09T06:31:14.444Z,0.70
2017-12-09T06:33:41.656Z,0.70
2017-12-09T06:36:08.681Z,0.60
2017-12-09T06:38:35.759Z,0.70
2017-12-09T06:41:02.828Z,0.80
2017-12-09T06:43:30.067Z,0.70
2017-12-09T06:45:57.141Z,0.70
2017-12-09T06:48:24.334Z,0.60
2017-12-09T06:50:52.211Z,0.60
2017-12-09T06:53:19.343Z,0.60
2017-12-09T06:55:46.435Z,0.60
2017-12-09T06:58:13.467Z,0.60
2017-12-09T07:00:40.518Z,0.50
2017-12-09T07:03:07.651Z,0.50
2017-12-09T07:05:35.453Z,0.60
2017-12-09T07:08:02.492Z,0.50
2017-12-09T07:10:29.655Z,0.60
2017-12-09T07:12:57.364Z,0.60
2017-12-09T07:15:28.038Z,0.70
2017-12-09T07:17:55.188Z,0.70
2017-12-09T07:20:31.038Z,0.60
2017-12-09T07:22:58.390Z,0.70
2017-12-09T07:25:31.818Z,0.70
2017-12-09T07:27:59.414Z,0.70
2017-12-09T07:30:26.729Z,0.80
2017-12-09T07:32:55.333Z,0.90
2017-12-09T07:35:23.468Z,1.10
2017-12-09T07:37:51.548Z,1.00
2017-12-09T07:40:18.840Z,1.10
2017-12-09T07:42:47.633Z,1.20
2017-12-09T07:45:15.854Z,1.20
2017-12-09T07:47:43.974Z,1.30
2017-12-09T07:50:11.190Z,1.30
2017-12-09T07:52:38.780Z,1.30
2017-12-09T07:55:09.758Z,1.10
2017-12-09T07:57:38.488Z,1.10
2017-12-09T08:00:06.286Z,1.10
2017-12-09T08:02:42.646Z,1.30
2017-12-09T08:05:11.459Z,1.40
2017-12-09T08:07:38.695Z,1.40
2017-12-09T08:10:05.918Z,1.50
2017-12-09T08:12:43.124Z,2.50
2017-12-09T08:15:11.112Z,2.60
2017-12-09T08:17:39.381Z,3.30
2017-12-09T08:20:06.779Z,4.40
2017-12-09T08:22:38.566Z,4.70
2017-12-09T08:25:06.245Z,4.80
2017-12-09T08:27:33.593Z,4.60
2017-12-09T08:30:00.798Z,4.80
2017-12-09T08:32:27.998Z,4.60
2017-12-09T08:34:55.095Z,4.80
2017-12-09T08:37:22.358Z,4.40
2017-12-09T08:39:49.549Z,4.60
2017-12-09T08:42:16.715Z,4.90
2017-12-09T08:44:44.114Z,4.90
2017-12-09T08:47:12.059Z,5.30
2017-12-09T08:49:39.132Z,5.30
2017-12-09T08:52:06.298Z,5.00
2017-12-09T08:54:33.411Z,4.90
2017-12-09T08:57:01.358Z,4.90
2017-12-09T08:59:28.636Z,4.90
2017-12-09T09:01:55.832Z,5.60
2017-12-09T09:04:22.958Z,6.20
2017-12-09T09:06:50.167Z,5.90
2017-12-09T09:09:17.375Z,5.60
2017-12-09T09:11:44.561Z,5.60
2017-12-09T09:14:11.755Z,5.30
2017-12-09T09:16:38.772Z,4.80
2017-12-09T09:19:05.899Z,4.70
2017-12-09T09:21:33.032Z,4.60
2017-12-09T09:24:00.955Z,4.10
2017-12-09T09:26:28.064Z,4.10
2017-12-09T09:28:55.153Z,4.20
2017-12-09T09:31:23.391Z,4.20
2017-12-09T09:33:51.284Z,4.10
2017-12-09T09:36:18.435Z,4.00
2017-12-09T09:38:45.563Z,3.80
2017-12-09T09:41:12.764Z,3.80
2017-12-09T09:43:39.859Z,3.80
2017-12-09T09:46:07.728Z,3.60
2017-12-09T09:48:35.011Z,3.60
2017-12-09T09:51:01.977Z,3.90
2017-12-09T09:53:28.975Z,3.70
2017-12-09T09:55:56.727Z,3.90
2017-12-09T09:58:24.579Z,3.90
2017-12-09T10:00:51.680Z,3.90
2017-12-09T10:03:18.888Z,4.20
2017-12-09T10:05:45.995Z,4.40
2017-12-09T10:08:13.080Z,4.90
2017-12-09T10:10:40.216Z,5.00
2017-12-09T10:13:08.246Z,4.80
2017-12-09T10:15:35.496Z,4.80
2017-12-09T10:18:02.749Z,4.40
2017-12-09T10:20:29.950Z,4.30
2017-12-09T10:22:57.063Z,3.90
2017-12-09T10:25:24.279Z,3.90
2017-12-09T10:27:51.323Z,4.00
2017-12-09T10:30:18.550Z,3.90
2017-12-09T10:32:45.808Z,3.90
2017-12-09T10:35:12.869Z,3.70
2017-12-09T10:37:40.720Z,3.30
2017-12-09T10:40:07.838Z,3.30
2017-12-09T10:42:34.997Z,3.60
2017-12-09T10:45:02.080Z,3.50
2017-12-09T10:47:30.051Z,3.70
2017-12-09T10:49:57.187Z,3.70
2017-12-09T10:52:24.347Z,4.10
2017-12-09T10:54:51.455Z,4.00
2017-12-09T10:57:18.595Z,4.10
2017-12-09T10:59:45.649Z,4.40
2017-12-09T11:02:12.898Z,4.80
2017-12-09T11:04:39.986Z,4.90
2017-12-09T11:07:07.190Z,4.60
2017-12-09T11:09:34.968Z,4.70
2017-12-09T11:12:02.214Z,4.70
2017-12-09T11:14:29.503Z,5.00
2017-12-09T11:16:56.594Z,5.00
2017-12-09T11:19:23.788Z,5.00
2017-12-09T11:21:50.902Z,4.60
2017-12-09T11:24:18.165Z,4.70
2017-12-09T11:26:46.095Z,4.50
2017-12-09T11:29:14.039Z,4.30
2017-12-09T11:31:41.204Z,4.30
2017-12-09T11:34:08.459Z,4.40
2017-12-09T11:36:35.526Z,4.60
2017-12-09T11:39:02.600Z,4.60
2017-12-09T11:41:30.631Z,4.50
2017-12-09T11:43:57.808Z,4.60
2017-12-09T11:46:25.581Z,4.10
2017-12-09T11:48:52.879Z,4.00
2017-12-09T11:51:20.003Z,4.10
2017-12-09T11:53:47.917Z,3.70
2017-12-09T11:56:15.149Z,3.60
2017-12-09T11:58:42.684Z,3.50
2017-12-09T12:01:10.445Z,3.90
2017-12-09T12:03:37.588Z,3.90
2017-12-09T12:06:04.703Z,3.90
2017-12-09T12:08:31.788Z,3.90
2017-12-09T12:10:59.728Z,4.10
2017-12-09T12:13:26.895Z,4.00
2017-12-09T12:15:53.969Z,3.90
2017-12-09T12:18:21.872Z,4.00
2017-12-09T12:20:48.956Z,4.00
2017-12-09T12:23:16.138Z,4.00
2017-12-09T12:25:43.299Z,3.90
2017-12-09T12:28:10.418Z,3.90
2017-12-09T12:30:37.595Z,3.80
2017-12-09T12:33:04.798Z,3.60
2017-12-09T12:35:31.916Z,3.50
2017-12-09T12:37:59.008Z,3.60
2017-12-09T12:40:26.072Z,3.40
2017-12-09T12:42:53.189Z,3.30
2017-12-09T12:45:20.307Z,3.30
2017-12-09T12:47:47.437Z,3.30
2017-12-09T12:50:15.334Z,3.30
2017-12-09T12:52:42.584Z,3.30
2017-12-09T12:55:10.391Z,3.30
2017-12-09T12:57:37.627Z,3.30
2017-12-09T13:00:04.758Z,3.30
2017-12-09T13:02:32.597Z,3.10
2017-12-09T13:04:59.703Z,3.10
2017-12-09T13:07:26.973Z,3.20
2017-12-09T13:09:54.016Z,3.10
2017-12-09T13:12:21.190Z,3.20
2017-12-09T13:14:48.352Z,3.20
2017-12-09T13:17:15.363Z,3.40
2017-12-09T13:19:42.572Z,3.20
2017-12-09T13:22:10.482Z,3.40
2017-12-09T13:24:37.608Z,3.40
2017-12-09T13:27:04.838Z,3.10
2017-12-09T13:29:31.908Z,3.20
2017-12-09T13:31:59.101Z,3.30
2017-12-09T13:34:26.153Z,3.20
2017-12-09T13:36:53.326Z,3.20
2017-12-09T13:39:20.553Z,3.00
2017-12-09T13:41:47.632Z,2.80
2017-12-09T13:44:14.817Z,2.90
2017-12-09T13:46:41.960Z,2.60
2017-12-09T13:49:09.328Z,2.60
2017-12-09T13:51:36.384Z,2.60
2017-12-09T13:54:03.624Z,2.40
2017-12-09T13:56:30.842Z,2.60
2017-12-09T13:58:58.283Z,2.60
2017-12-09T14:01:25.354Z,2.50
2017-12-09T14:03:52.452Z,2.30
2017-12-09T14:06:19.799Z,2.40
2017-12-09T14:08:46.942Z,2.40
2017-12-09T14:11:14.132Z,2.40
2017-12-09T14:13:41.382Z,2.00
2017-12-09T14:16:08.587Z,2.40
2017-12-09T14:18:36.704Z,2.40
2017-12-09T14:21:03.700Z,2.40
2017-12-09T14:23:30.790Z,2.40
2017-12-09T14:25:57.888Z,2.40
2017-12-09T14:28:25.025Z,2.30
2017-12-09T14:30:52.053Z,2.30
2017-12-09T14:33:19.129Z,2.20
2017-12-09T14:35:47.026Z,2.00
2017-12-09T14:38:14.207Z,2.00
2017-12-09T14:40:41.412Z,2.20
2017-12-09T14:43:08.523Z,2.20
2017-12-09T14:45:35.553Z,2.20
2017-12-09T14:48:02.507Z,2.20
2017-12-09T14:50:29.569Z,2.30
2017-12-09T14:52:57.432Z,2.40
2017-12-09T14:55:24.513Z,2.30
2017-12-09T14:57:51.560Z,2.30
2017-12-09T15:00:19.395Z,2.20
2017-12-09T15:02:46.442Z,2.20
2017-12-09T15:05:13.433Z,2.20
2017-12-09T15:07:40.450Z,2.20
2017-12-09T15:10:07.531Z,2.30
2017-12-09T15:12:34.525Z,2.40
2017-12-09T15:15:01.577Z,2.30
2017-12-09T15:17:28.639Z,2.40
2017-12-09T15:19:55.744Z,2.10
2017-12-09T15:22:23.618Z,2.20
2017-12-09T15:24:50.692Z,2.20
2017-12-09T15:27:17.752Z,2.10
2017-12-09T15:29:44.848Z,2.10
2017-12-09T15:32:12.692Z,2.10
2017-12-09T15:34:39.839Z,2.10
2017-12-09T15:37:06.998Z,2.10
2017-12-09T15:39:34.224Z,2.00
2017-12-09T15:42:01.384Z,2.10
2017-12-09T15:44:28.617Z,2.10
2017-12-09T15:46:55.712Z,2.10
2017-12-09T15:49:22.917Z,2.00
2017-12-09T15:51:49.992Z,2.10
2017-12-09T15:54:17.165Z,2.10
2017-12-09T15:56:44.191Z,2.20
2017-12-09T15:59:11.389Z,2.20
2017-12-09T16:01:38.616Z,2.20
2017-12-09T16:04:06.486Z,2.30
2017-12-09T16:06:33.639Z,2.30
2017-12-09T16:09:00.697Z,2.30
2017-12-09T16:11:27.951Z,2.40
2017-12-09T16:13:55.039Z,2.30
2017-12-09T16:16:22.082Z,2.30
2017-12-09T16:18:49.452Z,2.20
2017-12-09T16:21:16.600Z,2.40
2017-12-09T16:23:43.841Z,2.30
2017-12-09T16:26:11.050Z,2.30
2017-12-09T16:28:38.298Z,2.20
2017-12-09T16:31:05.592Z,2.10
2017-12-09T16:33:32.758Z,2.10
2017-12-09T16:35:59.964Z,2.00
2017-12-09T16:38:27.045Z,2.10
2017-12-09T16:40:54.961Z,2.20
2017-12-09T16:43:22.103Z,2.20
2017-12-09T16:45:49.190Z,2.20
2017-12-09T16:48:16.339Z,2.20
2017-12-09T16:50:43.571Z,2.00
2017-12-09T16:53:10.733Z,1.80
2017-12-09T16:55:37.791Z,1.80
2017-12-09T16:58:04.911Z,1.80
2017-12-09T17:00:32.345Z,1.70
2017-12-09T17:02:59.579Z,1.80
2017-12-09T17:05:26.756Z,1.80
2017-12-09T17:07:54.025Z,1.50
2017-12-09T17:10:21.719Z,1.50
2017-12-09T17:12:48.751Z,1.60
2017-12-09T17:15:15.992Z,1.50
2017-12-09T17:17:43.254Z,1.60
2017-12-09T17:20:10.618Z,1.70
2017-12-09T17:22:37.756Z,1.60
2017-12-09T17:25:04.937Z,1.50
2017-12-09T17:27:32.011Z,1.50
2017-12-09T17:29:59.179Z,1.60
2017-12-09T17:32:26.308Z,1.60
2017-12-09T17:34:53.609Z,1.50
2017-12-09T17:37:20.728Z,1.60
2017-12-09T17:39:47.853Z,1.70
2017-12-09T17:42:15.166Z,1.80
2017-12-09T17:44:42.271Z,1.70
2017-12-09T17:47:09.428Z,1.80
2017-12-09T17:49:36.646Z,1.80
2017-12-09T17:52:03.796Z,1.90
2017-12-09T17:54:34.733Z,2.00
2017-12-09T17:57:02.081Z,2.00
2017-12-09T17:59:29.275Z,2.10
2017-12-09T18:01:57.201Z,1.90
2017-12-09T18:04:25.405Z,1.90
2017-12-09T18:06:52.656Z,2.10
2017-12-09T18:09:19.878Z,2.00
2017-12-09T18:11:47.124Z,2.20
2017-12-09T18:14:14.435Z,2.10
2017-12-09T18:16:41.877Z,2.30
2017-12-09T18:19:09.724Z,2.30
2017-12-09T18:21:36.802Z,2.30
2017-12-09T18:24:04.965Z,2.50
2017-12-09T18:26:32.263Z,2.40
2017-12-09T18:28:59.686Z,2.40
2017-12-09T18:31:27.682Z,2.40
2017-12-09T18:33:56.060Z,2.40
2017-12-09T18:36:24.256Z,2.60
2017-12-09T18:38:55.542Z,2.60
2017-12-09T18:41:25.508Z,2.70
2017-12-09T18:43:52.674Z,2.60
2017-12-09T18:46:19.748Z,2.50
2017-12-09T18:48:47.032Z,2.50
2017-12-09T18:51:16.559Z,2.40
2017-12-09T18:53:55.553Z,2.60
2017-12-09T18:56:24.701Z,2.30
2017-12-09T18:58:51.718Z,2.30
2017-12-09T19:01:18.960Z,2.30
2017-12-09T19:03:46.155Z,2.30
2017-12-09T19:06:21.320Z,2.30
2017-12-09T19:08:49.206Z,2.50
2017-12-09T19:11:16.411Z,2.50
2017-12-09T19:13:43.641Z,2.40
2017-12-09T19:16:23.868Z,2.40
2017-12-09T19:19:05.583Z,2.60
2017-12-09T19:21:34.016Z,2.50
2017-12-09T19:24:01.236Z,2.50
2017-12-09T19:26:29.899Z,2.40
2017-12-09T19:28:58.044Z,2.50
2017-12-09T19:31:25.311Z,2.50
2017-12-09T19:33:52.495Z,2.50
2017-12-09T19:36:20.593Z,2.60
2017-12-09T19:38:47.814Z,2.60
2017-12-09T19:41:15.910Z,2.60
2017-12-09T19:43:43.124Z,2.60
2017-12-09T19:46:10.241Z,2.50
2017-12-09T19:48:37.447Z,2.60
2017-12-09T19:51:05.436Z,2.60
2017-12-09T19:53:32.888Z,2.60
2017-12-09T19:56:00.872Z,2.50
2017-12-09T19:58:28.396Z,2.50
2017-12-09T20:00:55.884Z,2.40
2017-12-09T20:03:23.788Z,2.60
2017-12-09T20:05:50.842Z,2.50
2017-12-09T20:08:18.005Z,2.40
2017-12-09T20:10:45.139Z,2.50
2017-12-09T20:13:12.328Z,2.50
2017-12-09T20:15:39.355Z,2.50
2017-12-09T20:18:06.659Z,2.50
2017-12-09T20:20:33.896Z,2.60
2017-12-09T20:23:01.133Z,2.60
2017-12-09T20:25:28.394Z,2.50
2017-12-09T20:27:55.512Z,2.60
2017-12-09T20:30:22.755Z,2.60
2017-12-09T20:32:50.035Z,2.60
2017-12-09T20:35:19.640Z,2.70
2017-12-09T20:37:48.538Z,2.60
2017-12-09T20:40:17.747Z,2.80
2017-12-09T20:42:48.582Z,2.60
2017-12-09T20:45:17.147Z,2.60
2017-12-09T20:47:47.211Z,2.50
2017-12-09T20:50:15.224Z,2.60
2017-12-09T20:52:43.540Z,2.60
2017-12-09T20:55:12.566Z,2.70
2017-12-09T20:57:39.836Z,2.80
2017-12-09T21:00:10.110Z,2.80
2017-12-09T21:02:39.924Z,2.80
2017-12-09T21:05:10.272Z,2.80
2017-12-09T21:07:39.060Z,2.80
2017-12-09T21:10:07.853Z,2.60
2017-12-09T21:12:36.113Z,2.60
2017-12-09T21:15:03.462Z,2.70
2017-12-09T21:17:30.539Z,2.80
2017-12-09T21:19:57.867Z,2.80
2017-12-09T21:22:26.055Z,2.60
2017-12-09T21:24:54.944Z,2.70
2017-12-09T21:27:23.110Z,2.80
2017-12-09T21:29:52.776Z,2.70
2017-12-09T21:32:22.532Z,2.60
2017-12-09T21:34:52.281Z,2.60
2017-12-09T21:37:20.305Z,2.70
2017-12-09T21:40:00.560Z,2.50
2017-12-09T21:42:29.295Z,2.50
2017-12-09T21:45:08.467Z,2.50
2017-12-09T21:47:37.668Z,2.60
2017-12-09T21:50:05.677Z,2.60
2017-12-09T21:52:34.234Z,2.50
2017-12-09T21:55:01.565Z,2.50
2017-12-09T21:57:28.731Z,2.40
2017-12-09T21:59:56.750Z,2.40
2017-12-09T22:02:24.548Z,2.20
2017-12-09T22:04:51.928Z,2.20
2017-12-09T22:07:19.022Z,2.30
2017-12-09T22:09:47.388Z,2.20
2017-12-09T22:12:18.215Z,2.20
2017-12-09T22:14:46.159Z,2.30
2017-12-09T22:17:13.451Z,2.30
2017-12-09T22:19:40.397Z,2.40
2017-12-09T22:22:07.616Z,2.30
2017-12-09T22:24:34.610Z,2.30
2017-12-09T22:27:01.612Z,2.20
2017-12-09T22:29:28.660Z,2.10
2017-12-09T22:31:55.619Z,2.10
2017-12-09T22:34:22.666Z,2.20
2017-12-09T22:36:49.643Z,2.10
2017-12-09T22:39:17.364Z,2.30
2017-12-09T22:41:44.483Z,2.30
2017-12-09T22:44:11.543Z,2.30
2017-12-09T22:46:38.540Z,2.20
2017-12-09T22:49:05.569Z,2.20
2017-12-09T22:51:32.563Z,2.30
2017-12-09T22:53:59.577Z,2.30
2017-12-09T22:56:26.510Z,2.20
2017-12-09T22:58:53.563Z,2.10
2017-12-09T23:01:20.487Z,2.20
2017-12-09T23:03:47.401Z,1.90
2017-12-09T23:06:14.511Z,1.90
2017-12-09T23:08:41.516Z,2.00
2017-12-09T23:11:08.598Z,2.00
2017-12-09T23:13:35.537Z,1.90
2017-12-09T23:16:02.588Z,2.00
2017-12-09T23:18:29.543Z,2.00
2017-12-09T23:20:56.687Z,2.00
2017-12-09T23:23:23.681Z,2.00
2017-12-09T23:25:51.335Z,2.00
2017-12-09T23:28:19.130Z,2.00
2017-12-09T23:30:46.142Z,2.00
2017-12-09T23:33:13.683Z,1.90
2017-12-09T23:35:40.637Z,2.10
2017-12-09T23:38:07.678Z,2.00
2017-12-09T23:40:34.652Z,1.90
2017-12-09T23:43:02.495Z,2.00
2017-12-09T23:45:29.495Z,2.00
2017-12-09T23:47:56.493Z,2.00
2017-12-09T23:50:23.493Z,2.10
2017-12-09T23:52:50.492Z,2.00
2017-12-09T23:55:17.530Z,2.00
2017-12-09T23:57:44.571Z,1.90
